createdAt,value
2022-09-12T00:01:24.384Z,17.33
2022-09-12T00:03:56.771Z,17.61
2022-09-12T00:06:26.904Z,17.62
2022-09-12T00:09:00.110Z,17.19
2022-09-12T00:11:27.100Z,16.23
2022-09-12T00:13:59.108Z,17.02
2022-09-12T00:16:27.490Z,17.41
2022-09-12T00:18:54.318Z,17.11
2022-09-12T00:21:22.463Z,17.09
2022-09-12T00:23:49.690Z,17.09
2022-09-12T00:26:17.725Z,16.92
2022-09-12T00:28:45.789Z,16.98
2022-09-12T00:31:16.097Z,17.02
2022-09-12T00:33:42.874Z,16.89
2022-09-12T00:36:16.552Z,17.02
2022-09-12T00:38:43.694Z,17.11
2022-09-12T00:41:23.024Z,16.51
2022-09-12T00:43:55.316Z,17.08
2022-09-12T00:46:45.646Z,17.11
2022-09-12T00:49:15.310Z,17.07
2022-09-12T00:51:46.744Z,17.04
2022-09-12T00:54:19.147Z,17.01
2022-09-12T00:56:47.462Z,17.04
2022-09-12T00:59:22.573Z,16.89
2022-09-12T01:01:50.913Z,16.84
2022-09-12T01:04:21.927Z,16.80
2022-09-12T01:06:50.039Z,16.83
2022-09-12T01:09:19.909Z,16.80
2022-09-12T01:11:48.669Z,16.81
2022-09-12T01:14:17.134Z,16.78
2022-09-12T01:16:45.322Z,16.76
2022-09-12T01:19:49.665Z,16.76
2022-09-12T01:22:54.579Z,16.83
2022-09-12T01:26:14.978Z,16.78
2022-09-12T01:28:47.297Z,16.90
2022-09-12T01:31:24.516Z,16.81
2022-09-12T01:34:10.471Z,16.96
2022-09-12T01:36:57.539Z,16.94
2022-09-12T01:39:54.966Z,16.82
2022-09-12T01:42:30.331Z,16.81
2022-09-12T01:45:03.408Z,16.77
2022-09-12T01:47:48.140Z,16.74
2022-09-12T01:50:20.093Z,16.86
2022-09-12T01:53:05.109Z,16.53
2022-09-12T01:55:37.305Z,16.34
2022-09-12T01:58:06.443Z,16.31
2022-09-12T02:00:37.810Z,16.15
2022-09-12T02:03:39.630Z,16.48
2022-09-12T02:06:10.201Z,16.49
2022-09-12T02:08:52.222Z,16.46
2022-09-12T02:11:20.524Z,15.99
2022-09-12T02:13:55.236Z,15.68
2022-09-12T02:16:42.275Z,15.56
2022-09-12T02:19:16.313Z,15.57
2022-09-12T02:21:51.058Z,15.78
2022-09-12T02:24:21.136Z,15.88
2022-09-12T02:26:52.812Z,15.74
2022-09-12T02:29:19.412Z,16.04
2022-09-12T02:31:59.979Z,15.54
2022-09-12T02:34:50.688Z,16.02
2022-09-12T02:37:27.223Z,15.99
2022-09-12T02:39:56.868Z,15.70
2022-09-12T02:42:24.594Z,14.35
2022-09-12T02:44:53.843Z,16.02
2022-09-12T02:47:36.616Z,16.11
2022-09-12T02:50:05.535Z,15.75
2022-09-12T02:52:32.316Z,15.80
2022-09-12T02:54:59.720Z,15.24
2022-09-12T02:57:26.427Z,15.94
2022-09-12T02:59:57.118Z,15.46
2022-09-12T03:02:42.388Z,15.88
2022-09-12T03:05:43.925Z,15.77
2022-09-12T03:08:19.866Z,15.53
2022-09-12T03:10:59.204Z,15.70
2022-09-12T03:13:28.842Z,15.69
2022-09-12T03:16:19.214Z,15.48
2022-09-12T03:19:09.152Z,15.42
2022-09-12T03:22:06.636Z,15.23
2022-09-12T03:24:38.170Z,15.13
2022-09-12T03:27:17.583Z,15.17
2022-09-12T03:29:47.928Z,15.12
2022-09-12T03:32:15.453Z,14.51
2022-09-12T03:34:42.007Z,15.02
2022-09-12T03:37:08.595Z,14.81
2022-09-12T03:39:35.259Z,14.88
2022-09-12T03:42:01.988Z,14.35
2022-09-12T03:44:28.774Z,12.70
2022-09-12T03:46:55.311Z,14.88
2022-09-12T03:49:21.873Z,14.19
2022-09-12T03:51:48.520Z,14.85
2022-09-12T03:54:15.060Z,14.88
2022-09-12T03:56:41.648Z,14.77
2022-09-12T03:59:08.766Z,13.33
2022-09-12T04:01:35.655Z,14.31
2022-09-12T04:04:02.407Z,14.65
2022-09-12T04:06:29.781Z,14.73
2022-09-12T04:08:56.435Z,14.72
2022-09-12T04:11:23.456Z,14.29
2022-09-12T04:13:50.253Z,14.76
2022-09-12T04:16:18.051Z,14.11
2022-09-12T04:18:45.453Z,14.62
2022-09-12T04:21:21.796Z,14.15
2022-09-12T04:23:48.647Z,14.61
2022-09-12T04:26:17.472Z,14.56
2022-09-12T04:28:46.129Z,14.71
2022-09-12T04:31:17.697Z,14.07
2022-09-12T04:33:45.440Z,14.57
2022-09-12T04:36:16.704Z,13.95
2022-09-12T04:38:44.786Z,14.66
2022-09-12T04:41:17.691Z,14.58
2022-09-12T04:43:46.604Z,14.77
2022-09-12T04:46:16.128Z,14.90
2022-09-12T04:48:43.974Z,14.53
2022-09-12T04:51:16.960Z,15.05
2022-09-12T04:53:47.571Z,14.77
2022-09-12T04:56:14.197Z,15.02
2022-09-12T04:58:40.931Z,15.50
2022-09-12T05:01:16.546Z,15.28
2022-09-12T05:03:45.065Z,15.41
2022-09-12T05:06:24.008Z,15.47
2022-09-12T05:08:52.134Z,15.71
2022-09-12T05:11:24.796Z,15.97
2022-09-12T05:13:52.159Z,15.79
2022-09-12T05:16:19.883Z,16.28
2022-09-12T05:18:47.299Z,16.35
2022-09-12T05:21:16.265Z,16.04
2022-09-12T05:23:43.236Z,16.51
2022-09-12T05:26:16.666Z,16.38
2022-09-12T05:28:43.898Z,16.84
2022-09-12T05:31:13.667Z,16.83
2022-09-12T05:33:42.314Z,16.96
2022-09-12T05:36:13.219Z,17.02
2022-09-12T05:38:39.965Z,16.25
2022-09-12T05:41:21.888Z,16.54
2022-09-12T05:43:56.152Z,17.38
2022-09-12T05:46:26.560Z,17.59
2022-09-12T05:48:56.443Z,17.30
2022-09-12T05:51:31.734Z,16.95
2022-09-12T05:54:00.268Z,18.04
2022-09-12T05:56:28.773Z,18.21
2022-09-12T05:58:58.439Z,18.31
2022-09-12T06:01:27.335Z,18.24
2022-09-12T06:03:56.132Z,18.86
2022-09-12T06:06:25.323Z,19.09
2022-09-12T06:08:53.975Z,18.30
2022-09-12T06:11:23.067Z,19.41
2022-09-12T06:13:50.986Z,18.85
2022-09-12T06:16:19.828Z,19.45
2022-09-12T06:18:54.046Z,19.64
2022-09-12T06:21:22.044Z,19.58
2022-09-12T06:23:49.232Z,20.03
2022-09-12T06:26:17.554Z,18.73
2022-09-12T06:28:45.540Z,20.19
2022-09-12T06:31:16.079Z,20.24
2022-09-12T06:33:45.080Z,20.19
2022-09-12T06:36:16.105Z,18.49
2022-09-12T06:38:43.460Z,20.00
2022-09-12T06:41:12.441Z,20.41
2022-09-12T06:43:41.121Z,20.26
2022-09-12T06:46:08.762Z,20.79
2022-09-12T06:48:41.013Z,20.75
2022-09-12T06:51:17.171Z,20.81
2022-09-12T06:53:46.794Z,20.98
2022-09-12T06:56:16.629Z,20.44
2022-09-12T06:58:43.774Z,20.92
2022-09-12T07:01:16.340Z,20.81
2022-09-12T07:03:47.667Z,21.00
2022-09-12T07:06:16.057Z,20.19
2022-09-12T07:08:43.028Z,20.86
2022-09-12T07:11:09.567Z,21.46
2022-09-12T07:13:36.178Z,19.71
2022-09-12T07:16:06.264Z,20.77
2022-09-12T07:18:34.330Z,21.31
2022-09-12T07:21:05.178Z,20.19
2022-09-12T07:23:31.867Z,21.31
2022-09-12T07:26:00.171Z,21.30
2022-09-12T07:28:29.024Z,21.97
2022-09-12T07:30:55.927Z,21.66
2022-09-12T07:33:24.896Z,22.27
2022-09-12T07:35:53.364Z,22.10
2022-09-12T07:38:23.860Z,22.03
2022-09-12T07:40:50.425Z,22.42
2022-09-12T07:43:17.008Z,22.57
2022-09-12T07:45:43.622Z,22.15
2022-09-12T07:48:10.188Z,22.70
2022-09-12T07:50:37.185Z,22.60
2022-09-12T07:53:05.229Z,22.25
2022-09-12T07:55:32.316Z,22.55
2022-09-12T07:57:59.084Z,22.39
2022-09-12T08:00:25.815Z,22.37
2022-09-12T08:02:53.368Z,22.11
2022-09-12T08:05:20.828Z,22.48
2022-09-12T08:07:47.752Z,22.70
2022-09-12T08:10:14.457Z,21.98
2022-09-12T08:12:41.058Z,22.88
2022-09-12T08:15:08.633Z,22.98
2022-09-12T08:17:35.241Z,23.01
2022-09-12T08:20:02.342Z,23.19
2022-09-12T08:22:30.878Z,22.65
2022-09-12T08:24:57.427Z,23.05
2022-09-12T08:27:24.000Z,23.32
2022-09-12T08:29:50.538Z,22.11
2022-09-12T08:32:17.143Z,22.97
2022-09-12T08:34:43.701Z,22.76
2022-09-12T08:37:10.242Z,23.48
2022-09-12T08:39:36.968Z,23.61
2022-09-12T08:42:07.148Z,24.09
2022-09-12T08:44:53.494Z,24.37
2022-09-12T08:47:20.020Z,24.17
2022-09-12T08:49:59.011Z,24.21
2022-09-12T08:52:30.941Z,24.12
2022-09-12T08:54:57.588Z,23.81
2022-09-12T08:57:24.677Z,23.81
2022-09-12T08:59:53.042Z,24.23
2022-09-12T09:02:45.930Z,24.74
2022-09-12T09:05:25.289Z,24.46
2022-09-12T09:08:00.907Z,24.76
2022-09-12T09:10:35.147Z,23.92
2022-09-12T09:13:37.279Z,24.80
2022-09-12T09:16:13.649Z,24.53
2022-09-12T09:18:42.903Z,24.26
2022-09-12T09:21:21.086Z,24.10
2022-09-12T09:23:55.269Z,24.32
2022-09-12T09:26:30.492Z,24.43
2022-09-12T09:29:07.657Z,24.54
2022-09-12T09:31:39.101Z,22.90
2022-09-12T09:34:23.160Z,23.89
2022-09-12T09:37:20.305Z,24.81
2022-09-12T09:39:46.821Z,25.05
2022-09-12T09:42:27.885Z,25.31
2022-09-12T09:44:58.825Z,24.65
2022-09-12T09:47:25.851Z,25.43
2022-09-12T09:49:52.490Z,24.88
2022-09-12T09:52:27.413Z,25.10
2022-09-12T09:54:59.441Z,25.02
2022-09-12T09:57:35.083Z,25.34
2022-09-12T10:00:27.145Z,25.32
2022-09-12T10:03:26.516Z,25.04
2022-09-12T10:06:05.273Z,25.28
2022-09-12T10:08:35.377Z,24.72
2022-09-12T10:11:07.777Z,24.89
2022-09-12T10:13:39.557Z,24.83
2022-09-12T10:16:22.609Z,25.10
2022-09-12T10:18:52.560Z,25.38
2022-09-12T10:22:04.143Z,25.80
2022-09-12T10:24:41.194Z,26.00
2022-09-12T10:27:13.630Z,26.13
2022-09-12T10:29:51.999Z,24.98
2022-09-12T10:32:36.204Z,26.48
2022-09-12T10:35:09.124Z,26.64
2022-09-12T10:37:39.504Z,26.54
2022-09-12T10:40:20.665Z,26.30
2022-09-12T10:42:56.046Z,26.38
2022-09-12T10:45:30.109Z,25.96
2022-09-12T10:48:02.111Z,26.50
2022-09-12T10:50:40.756Z,26.77
2022-09-12T10:53:43.127Z,26.54
2022-09-12T10:56:16.863Z,25.82
2022-09-12T10:58:53.739Z,26.25
2022-09-12T11:01:29.988Z,26.40
2022-09-12T11:04:24.848Z,26.59
2022-09-12T11:07:29.104Z,26.73
2022-09-12T11:10:04.680Z,27.11
2022-09-12T11:12:48.367Z,26.62
2022-09-12T11:15:17.912Z,26.53
2022-09-12T11:18:11.075Z,26.69
2022-09-12T11:21:15.366Z,27.15
2022-09-12T11:24:09.588Z,26.39
2022-09-12T11:26:44.824Z,27.33
2022-09-12T11:29:46.999Z,27.22
2022-09-12T11:32:41.537Z,27.14
2022-09-12T11:35:17.779Z,27.07
2022-09-12T11:37:56.257Z,27.15
2022-09-12T11:40:30.104Z,26.89
2022-09-12T11:43:07.441Z,27.36
2022-09-12T11:45:42.518Z,27.55
2022-09-12T11:48:33.980Z,26.97
2022-09-12T11:51:05.047Z,26.92
2022-09-12T11:53:38.816Z,26.70
2022-09-12T11:56:13.817Z,26.82
2022-09-12T11:58:42.932Z,26.61
2022-09-12T12:01:14.228Z,26.93
2022-09-12T12:03:47.698Z,26.94
2022-09-12T12:06:21.547Z,26.64
2022-09-12T12:08:50.616Z,26.11
2022-09-12T12:11:41.948Z,26.25
2022-09-12T12:14:22.825Z,26.69
2022-09-12T12:16:50.787Z,26.31
2022-09-12T12:19:17.287Z,26.39
2022-09-12T12:21:46.392Z,25.64
2022-09-12T12:24:13.068Z,26.15
2022-09-12T12:26:42.520Z,26.03
2022-09-12T12:29:13.564Z,26.21
2022-09-12T12:31:59.146Z,26.49
2022-09-12T12:34:34.310Z,26.67
2022-09-12T12:37:19.509Z,26.63
2022-09-12T12:39:47.980Z,26.75
2022-09-12T12:42:33.490Z,26.96
2022-09-12T12:45:23.471Z,26.95
2022-09-12T12:48:05.061Z,27.15
2022-09-12T12:50:35.140Z,27.02
2022-09-12T12:53:07.763Z,26.61
2022-09-12T12:55:48.347Z,25.49
2022-09-12T12:58:20.786Z,26.90
2022-09-12T13:00:48.047Z,26.27
2022-09-12T13:03:30.799Z,26.04
2022-09-12T13:06:02.056Z,25.99
2022-09-12T13:08:34.577Z,26.96
2022-09-12T13:11:27.260Z,26.88
2022-09-12T13:13:59.624Z,26.73
2022-09-12T13:16:37.566Z,26.28
2022-09-12T13:19:17.989Z,25.38
2022-09-12T13:22:07.493Z,25.95
2022-09-12T13:24:42.180Z,25.93
2022-09-12T13:27:23.341Z,25.90
2022-09-12T13:29:50.419Z,25.88
2022-09-12T13:32:18.383Z,25.90
2022-09-12T13:35:13.560Z,25.26
2022-09-12T13:37:53.452Z,25.60
2022-09-12T13:40:35.264Z,25.58
2022-09-12T13:43:09.291Z,25.69
2022-09-12T13:45:39.379Z,25.64
2022-09-12T13:48:10.207Z,25.40
2022-09-12T13:50:46.285Z,25.31
2022-09-12T13:53:20.972Z,24.90
2022-09-12T13:55:52.059Z,25.29
2022-09-12T13:58:29.153Z,25.27
2022-09-12T14:01:12.479Z,26.44
2022-09-12T14:04:07.329Z,27.31
2022-09-12T14:06:52.873Z,26.37
2022-09-12T14:09:29.849Z,26.22
2022-09-12T14:11:57.831Z,25.76
2022-09-12T14:14:32.869Z,25.22
2022-09-12T14:17:00.590Z,24.64
2022-09-12T14:19:29.262Z,24.58
2022-09-12T14:21:57.478Z,24.14
2022-09-12T14:24:24.521Z,24.31
2022-09-12T14:26:54.481Z,24.46
2022-09-12T14:29:22.517Z,24.10
2022-09-12T14:32:04.690Z,24.19
2022-09-12T14:34:31.636Z,23.88
2022-09-12T14:36:59.287Z,23.09
2022-09-12T14:39:33.522Z,23.87
2022-09-12T14:42:18.344Z,23.99
2022-09-12T14:45:01.140Z,23.95
2022-09-12T14:47:33.544Z,23.40
2022-09-12T14:50:00.534Z,23.92
2022-09-12T14:52:33.424Z,23.30
2022-09-12T14:55:01.277Z,23.25
2022-09-12T14:57:39.599Z,23.61
2022-09-12T15:00:12.357Z,23.38
2022-09-12T15:02:40.344Z,23.68
2022-09-12T15:05:06.881Z,23.65
2022-09-12T15:07:50.656Z,23.54
2022-09-12T15:10:22.871Z,23.62
2022-09-12T15:12:49.899Z,23.67
2022-09-12T15:15:19.390Z,23.50
2022-09-12T15:17:46.730Z,23.38
2022-09-12T15:20:13.946Z,23.57
2022-09-12T15:22:41.955Z,23.26
2022-09-12T15:25:10.764Z,23.39
2022-09-12T15:27:40.867Z,23.17
2022-09-12T15:30:10.317Z,23.34
2022-09-12T15:32:37.587Z,23.35
2022-09-12T15:35:04.518Z,23.42
2022-09-12T15:37:31.142Z,22.94
2022-09-12T15:39:57.779Z,23.07
2022-09-12T15:42:29.195Z,22.93
2022-09-12T15:44:59.409Z,23.05
2022-09-12T15:47:28.371Z,20.16
2022-09-12T15:49:54.942Z,22.57
2022-09-12T15:52:21.540Z,20.99
2022-09-12T15:54:48.208Z,22.63
2022-09-12T15:57:14.814Z,20.90
2022-09-12T15:59:41.395Z,22.56
2022-09-12T16:02:10.044Z,22.44
2022-09-12T16:04:36.687Z,22.32
2022-09-12T16:07:03.446Z,22.12
2022-09-12T16:09:30.116Z,21.77
2022-09-12T16:11:56.779Z,21.50
2022-09-12T16:14:23.365Z,21.02
2022-09-12T16:16:56.081Z,21.80
2022-09-12T16:19:22.780Z,21.53
2022-09-12T16:21:49.477Z,21.56
2022-09-12T16:24:16.145Z,21.49
2022-09-12T16:26:43.123Z,21.67
2022-09-12T16:29:13.504Z,21.35
2022-09-12T16:31:40.293Z,20.51
2022-09-12T16:34:07.431Z,21.35
2022-09-12T16:36:34.543Z,21.28
2022-09-12T16:39:01.387Z,21.41
2022-09-12T16:41:28.400Z,21.28
2022-09-12T16:43:55.109Z,19.69
2022-09-12T16:46:25.173Z,21.40
2022-09-12T16:48:54.466Z,21.37
2022-09-12T16:51:24.594Z,21.21
2022-09-12T16:53:52.039Z,21.11
2022-09-12T16:56:18.803Z,20.91
2022-09-12T16:58:47.805Z,21.13
2022-09-12T17:01:16.431Z,20.98
2022-09-12T17:03:43.108Z,21.13
2022-09-12T17:06:13.262Z,21.02
2022-09-12T17:08:44.908Z,20.87
2022-09-12T17:11:13.647Z,20.89
2022-09-12T17:14:03.249Z,20.60
2022-09-12T17:16:28.854Z,19.98
2022-09-12T17:18:55.822Z,20.41
2022-09-12T17:21:23.130Z,19.52
2022-09-12T17:23:50.594Z,20.38
2022-09-12T17:26:17.212Z,19.31
2022-09-12T17:28:44.196Z,20.26
2022-09-12T17:31:13.094Z,20.27
2022-09-12T17:33:40.154Z,18.08
2022-09-12T17:36:10.498Z,20.26
2022-09-12T17:38:39.632Z,20.37
2022-09-12T17:41:16.010Z,19.54
2022-09-12T17:43:43.014Z,20.27
2022-09-12T17:46:10.093Z,20.27
2022-09-12T17:48:37.288Z,19.66
2022-09-12T17:51:09.007Z,20.02
2022-09-12T17:53:35.709Z,19.53
2022-09-12T17:56:06.426Z,20.02
2022-09-12T17:58:34.211Z,20.18
2022-09-12T18:01:33.152Z,20.28
2022-09-12T18:04:01.066Z,19.42
2022-09-12T18:06:32.676Z,20.41
2022-09-12T18:09:04.329Z,19.40
2022-09-12T18:11:31.439Z,20.24
2022-09-12T18:13:59.398Z,20.44
2022-09-12T18:16:28.250Z,20.05
2022-09-12T18:18:55.588Z,20.38
2022-09-12T18:21:22.296Z,19.90
2022-09-12T18:23:48.917Z,20.20
2022-09-12T18:26:15.633Z,19.99
2022-09-12T18:28:44.120Z,20.20
2022-09-12T18:31:15.126Z,19.89
2022-09-12T18:33:41.978Z,20.20
2022-09-12T18:36:11.210Z,20.24
2022-09-12T18:38:39.239Z,19.77
2022-09-12T18:41:10.832Z,20.40
2022-09-12T18:43:37.986Z,20.25
2022-09-12T18:46:06.221Z,19.73
2022-09-12T18:48:34.003Z,19.97
2022-09-12T18:51:14.769Z,20.03
2022-09-12T18:53:42.917Z,20.08
2022-09-12T18:56:13.738Z,20.11
2022-09-12T18:58:42.746Z,19.95
2022-09-12T19:01:12.552Z,19.77
2022-09-12T19:03:39.754Z,19.69
2022-09-12T19:06:17.898Z,19.76
2022-09-12T19:08:45.377Z,19.41
2022-09-12T19:11:12.664Z,19.21
2022-09-12T19:13:42.313Z,19.58
2022-09-12T19:16:11.915Z,19.52
2022-09-12T19:18:39.856Z,19.44
2022-09-12T19:21:08.438Z,19.37
2022-09-12T19:23:36.348Z,19.37
2022-09-12T19:26:06.258Z,18.67
2022-09-12T19:28:33.504Z,19.26
2022-09-12T19:31:00.440Z,19.30
2022-09-12T19:33:26.990Z,19.03
2022-09-12T19:35:53.774Z,18.93
2022-09-12T19:38:20.429Z,18.80
2022-09-12T19:40:56.985Z,19.13
2022-09-12T19:43:24.249Z,18.66
2022-09-12T19:45:52.029Z,18.56
2022-09-12T19:48:19.571Z,18.84
2022-09-12T19:50:46.396Z,19.14
2022-09-12T19:53:13.314Z,19.10
2022-09-12T19:55:39.964Z,18.80
2022-09-12T19:58:07.052Z,18.82
2022-09-12T20:00:34.538Z,18.40
2022-09-12T20:03:01.775Z,18.52
2022-09-12T20:05:28.544Z,18.16
2022-09-12T20:07:55.175Z,18.09
2022-09-12T20:10:21.835Z,18.55
2022-09-12T20:12:48.406Z,18.47
2022-09-12T20:15:15.047Z,18.54
2022-09-12T20:17:41.927Z,18.42
2022-09-12T20:20:10.288Z,18.31
2022-09-12T20:22:40.173Z,18.24
2022-09-12T20:25:07.508Z,17.75
2022-09-12T20:27:34.112Z,18.01
2022-09-12T20:30:00.793Z,18.18
2022-09-12T20:32:28.952Z,17.78
2022-09-12T20:34:56.448Z,18.17
2022-09-12T20:37:23.715Z,17.70
2022-09-12T20:39:51.087Z,18.35
2022-09-12T20:42:17.812Z,17.22
2022-09-12T20:44:44.455Z,18.53
2022-09-12T20:47:11.096Z,18.41
2022-09-12T20:49:37.692Z,18.37
2022-09-12T20:52:04.815Z,18.37
2022-09-12T20:54:31.409Z,18.58
2022-09-12T20:56:58.020Z,18.41
2022-09-12T20:59:24.595Z,18.14
2022-09-12T21:01:51.344Z,17.42
2022-09-12T21:04:18.588Z,18.37
2022-09-12T21:06:45.198Z,18.24
2022-09-12T21:09:11.864Z,18.30
2022-09-12T21:11:38.417Z,18.10
2022-09-12T21:14:05.216Z,17.77
2022-09-12T21:16:38.310Z,17.81
2022-09-12T21:19:06.630Z,17.63
2022-09-12T21:21:33.309Z,17.64
2022-09-12T21:24:02.663Z,17.67
2022-09-12T21:26:29.573Z,17.35
2022-09-12T21:28:56.536Z,17.16
2022-09-12T21:31:23.715Z,17.25
2022-09-12T21:33:51.125Z,16.91
2022-09-12T21:36:17.839Z,16.97
2022-09-12T21:38:44.401Z,16.63
2022-09-12T21:41:14.373Z,17.25
2022-09-12T21:43:41.200Z,17.24
2022-09-12T21:46:08.433Z,16.85
2022-09-12T21:48:35.416Z,17.21
2022-09-12T21:51:02.608Z,17.25
2022-09-12T21:53:29.194Z,17.08
2022-09-12T21:56:01.401Z,16.77
2022-09-12T21:58:28.187Z,16.76
2022-09-12T22:00:54.909Z,16.76
2022-09-12T22:03:21.509Z,16.58
2022-09-12T22:05:56.129Z,16.79
2022-09-12T22:08:22.770Z,16.76
2022-09-12T22:10:49.428Z,16.75
2022-09-12T22:13:16.007Z,16.26
2022-09-12T22:15:50.523Z,16.53
2022-09-12T22:18:17.130Z,16.52
2022-09-12T22:20:43.809Z,16.67
2022-09-12T22:23:31.361Z,16.27
2022-09-12T22:25:59.137Z,16.61
2022-09-12T22:28:25.838Z,16.08
2022-09-12T22:30:54.450Z,16.37
2022-09-12T22:33:21.253Z,16.36
2022-09-12T22:35:48.391Z,15.98
2022-09-12T22:38:15.043Z,16.63
2022-09-12T22:40:41.602Z,16.23
2022-09-12T22:43:08.953Z,16.76
2022-09-12T22:45:35.589Z,16.66
2022-09-12T22:48:05.055Z,16.59
2022-09-12T22:50:35.508Z,16.38
2022-09-12T22:53:02.168Z,16.49
2022-09-12T22:55:28.797Z,16.43
2022-09-12T22:57:55.334Z,16.36
2022-09-12T23:00:22.151Z,15.74
2022-09-12T23:02:48.746Z,16.26
2022-09-12T23:05:15.388Z,16.01
2022-09-12T23:07:41.977Z,15.93
2022-09-12T23:10:09.009Z,15.39
2022-09-12T23:12:35.524Z,15.72
2022-09-12T23:15:02.224Z,15.77
2022-09-12T23:17:28.807Z,15.39
2022-09-12T23:19:55.383Z,13.65
2022-09-12T23:22:21.951Z,16.09
2022-09-12T23:24:48.538Z,16.14
2022-09-12T23:27:15.476Z,16.17
2022-09-12T23:29:42.098Z,16.03
2022-09-12T23:32:08.723Z,16.13
2022-09-12T23:34:35.366Z,15.60
2022-09-12T23:37:02.037Z,15.93
2022-09-12T23:39:28.605Z,15.39
2022-09-12T23:41:55.604Z,16.14
2022-09-12T23:44:22.212Z,16.12
2022-09-12T23:46:48.778Z,16.13
2022-09-12T23:49:15.356Z,16.14
2022-09-12T23:51:41.932Z,16.16
2022-09-12T23:54:08.778Z,16.13
2022-09-12T23:56:35.422Z,15.47
2022-09-12T23:59:02.021Z,15.93
